Time;durP1;ratioP1;P1;durP2;ratioP2;P2;SDS_P1;SDS_P2;PMS_P1;PMS_P2;Temp;Humidity;BMP_temperature;BMP_pressure;BME280_temperature;BME280_humidity;BME280_pressure;Samples;Min_cycle;Max_cycle;Signal;HPM_P1;HPM_P2
2021/06/05 00:01:17;;;;;;;5.25;3.10;;;13.40;91.50;;;;;;4880416;29;20127;-90
2021/06/05 00:03:43;;;;;;;6.13;3.30;;;13.20;91.90;;;;;;4897163;29;20436;-91
2021/06/05 00:06:10;;;;;;;6.95;3.72;;;13.00;92.30;;;;;;4883152;29;20028;-91
2021/06/05 00:08:35;;;;;;;8.30;3.67;;;12.80;92.70;;;;;;4883814;29;20073;-91
2021/06/05 00:11:06;;;;;;;6.47;3.92;;;12.70;93.30;;;;;;4885082;29;20132;-91
2021/06/05 00:13:42;;;;;;;6.35;3.50;;;12.50;93.80;;;;;;4881368;29;20073;-90
2021/06/05 00:16:12;;;;;;;7.90;3.75;;;12.40;94.40;;;;;;4882089;29;20029;-89
2021/06/05 00:18:38;;;;;;;10.70;4.20;;;12.20;95.00;;;;;;4884717;29;20089;-90
2021/06/05 00:21:05;;;;;;;10.90;4.55;;;12.10;95.60;;;;;;4888594;29;20075;-90
2021/06/05 00:23:31;;;;;;;10.73;4.40;;;12.00;96.30;;;;;;4887546;29;20039;-89
2021/06/05 00:25:58;;;;;;;9.45;4.13;;;11.90;97.00;;;;;;4885174;29;20028;-89
2021/06/05 00:28:26;;;;;;;8.30;3.80;;;11.80;97.70;;;;;;4884564;29;20020;-88
2021/06/05 00:30:52;;;;;;;8.75;4.78;;;11.70;98.50;;;;;;4882957;29;20031;-92
2021/06/05 00:33:18;;;;;;;7.70;4.32;;;11.70;99.00;;;;;;4885459;29;20029;-89
2021/06/05 00:35:47;;;;;;;7.63;4.43;;;11.70;99.60;;;;;;4882411;29;20025;-89
2021/06/05 00:38:13;;;;;;;5.97;3.92;;;11.60;99.90;;;;;;4882613;29;20061;-90
2021/06/05 00:40:43;;;;;;;6.53;4.07;;;11.60;99.90;;;;;;4883180;29;20028;-90
2021/06/05 00:43:11;;;;;;;8.32;4.07;;;11.60;99.90;;;;;;4883626;29;20036;-91
2021/06/05 00:45:41;;;;;;;10.63;4.60;;;11.60;99.90;;;;;;4884919;29;20480;-90
2021/06/05 00:48:07;;;;;;;10.93;4.70;;;11.50;99.90;;;;;;4883750;29;20480;-91
2021/06/05 00:50:34;;;;;;;7.32;4.95;;;11.40;99.90;;;;;;4886362;29;20021;-90
2021/06/05 00:53:01;;;;;;;8.30;4.82;;;11.30;99.90;;;;;;4881423;29;20055;-90
2021/06/05 00:55:30;;;;;;;12.82;4.88;;;11.20;99.90;;;;;;4878605;29;20025;-90
2021/06/05 00:57:56;;;;;;;6.63;4.47;;;11.10;99.90;;;;;;4884190;29;20024;-91
2021/06/05 01:00:39;;;;;;;8.50;4.53;;;11.10;99.90;;;;;;4896294;29;20047;-91
2021/06/05 01:03:06;;;;;;;11.23;4.50;;;11.10;99.90;;;;;;4876986;29;20032;-90
2021/06/05 01:05:35;;;;;;;8.30;4.00;;;11.00;99.90;;;;;;4879876;29;20024;-90
2021/06/05 01:08:30;;;;;;;6.88;4.60;;;11.00;99.90;;;;;;4877688;29;20028;-90
2021/06/05 01:11:11;;;;;;;6.90;4.25;;;10.90;99.90;;;;;;4870877;29;20033;-91
2021/06/05 01:13:52;;;;;;;7.10;4.85;;;10.90;99.90;;;;;;4881100;29;20024;-91
2021/06/05 01:16:21;;;;;;;10.20;4.05;;;10.90;99.90;;;;;;4896792;29;20040;-90
2021/06/05 01:18:56;;;;;;;5.40;3.80;;;10.80;99.90;;;;;;4884032;29;20033;-89
2021/06/05 01:21:25;;;;;;;8.93;4.28;;;10.80;99.90;;;;;;4880143;29;20045;-90
2021/06/05 01:24:44;;;;;;;8.38;5.00;;;10.70;99.90;;;;;;4898161;29;20052;-90
2021/06/05 01:27:17;;;;;;;9.90;4.55;;;10.60;99.90;;;;;;4777112;29;20043;-91
2021/06/05 01:29:49;;;;;;;9.88;4.55;;;10.60;99.90;;;;;;4780333;30;20038;-92
2021/06/05 01:32:21;;;;;;;8.20;4.10;;;10.60;99.90;;;;;;4777906;30;20036;-90
2021/06/05 01:34:53;;;;;;;11.20;4.60;;;10.60;99.90;;;;;;4779450;30;20024;-91
2021/06/05 01:37:20;;;;;;;8.38;4.43;;;10.60;99.90;;;;;;4778847;29;20449;-90
2021/06/05 01:39:48;;;;;;;5.95;4.53;;;10.50;99.90;;;;;;4778729;30;20084;-92
2021/06/05 01:42:19;;;;;;;6.78;4.57;;;10.50;99.90;;;;;;4778068;30;20039;-90
2021/06/05 01:44:51;;;;;;;6.70;4.70;;;10.40;99.90;;;;;;4779097;30;20139;-90
2021/06/05 01:47:18;;;;;;;7.90;4.82;;;10.50;99.90;;;;;;4778350;30;20027;-91
2021/06/05 01:49:48;;;;;;;9.65;4.13;;;10.50;99.90;;;;;;4778089;29;20039;-90
2021/06/05 01:52:21;;;;;;;10.18;4.70;;;10.40;99.90;;;;;;4778142;30;20103;-90
2021/06/05 01:54:55;;;;;;;7.78;4.70;;;10.40;99.90;;;;;;4778687;30;20561;-90
2021/06/05 01:57:26;;;;;;;8.55;4.63;;;10.40;99.90;;;;;;4777952;30;20130;-91
2021/06/05 01:59:52;;;;;;;7.18;4.40;;;10.40;99.90;;;;;;4778037;30;20046;-90
2021/06/05 02:02:18;;;;;;;8.80;4.90;;;10.30;99.90;;;;;;4781234;29;20039;-90
2021/06/05 02:04:45;;;;;;;8.52;6.28;;;10.30;99.90;;;;;;4858592;29;20032;-90
2021/06/05 02:07:12;;;;;;;10.32;4.82;;;10.30;99.90;;;;;;4883502;29;20033;-90
2021/06/05 02:09:38;;;;;;;9.98;4.72;;;10.30;99.90;;;;;;4883507;29;20466;-91
2021/06/05 02:12:14;;;;;;;8.30;4.40;;;10.20;99.90;;;;;;4881030;29;20103;-90
2021/06/05 02:14:57;;;;;;;8.75;4.40;;;10.20;99.90;;;;;;4876259;29;20452;-90
2021/06/05 02:17:23;;;;;;;6.88;4.63;;;10.20;99.90;;;;;;4875215;29;20025;-90
2021/06/05 02:19:54;;;;;;;7.93;5.38;;;10.10;99.90;;;;;;4878908;29;20396;-90
2021/06/05 02:22:25;;;;;;;10.07;5.38;;;10.10;99.90;;;;;;4877876;29;20041;-90
2021/06/05 02:24:56;;;;;;;10.95;4.80;;;10.10;99.90;;;;;;4872844;29;20032;-90
2021/06/05 02:27:24;;;;;;;11.20;4.93;;;10.00;99.90;;;;;;4874680;29;20059;-90
2021/06/05 02:29:52;;;;;;;8.10;4.78;;;10.00;99.90;;;;;;4873410;29;20060;-91
2021/06/05 02:32:21;;;;;;;8.70;4.93;;;10.00;99.90;;;;;;4875171;29;20133;-90
2021/06/05 02:34:47;;;;;;;8.80;4.80;;;10.00;99.90;;;;;;4874745;29;20108;-91
2021/06/05 02:37:17;;;;;;;10.07;5.18;;;9.90;99.90;;;;;;4876958;29;20032;-89
2021/06/05 02:39:42;;;;;;;7.95;4.55;;;9.80;99.90;;;;;;4873597;29;20033;-90
2021/06/05 02:42:14;;;;;;;8.73;4.68;;;9.80;99.90;;;;;;4870884;29;20044;-91
2021/06/05 02:44:43;;;;;;;10.07;5.15;;;9.70;99.90;;;;;;4873239;29;20029;-90
2021/06/05 02:47:10;;;;;;;9.43;4.50;;;9.70;99.90;;;;;;4873843;29;20081;-90
2021/06/05 02:49:39;;;;;;;11.20;4.78;;;9.70;99.90;;;;;;4879484;29;20029;-90
2021/06/05 02:52:28;;;;;;;7.65;4.38;;;9.70;99.90;;;;;;4883574;29;20049;-90
2021/06/05 02:55:07;;;;;;;9.40;4.68;;;9.70;99.90;;;;;;4885140;29;20056;-89
2021/06/05 02:57:34;;;;;;;8.38;5.13;;;9.70;99.90;;;;;;4878248;29;20054;-90
2021/06/05 03:00:01;;;;;;;11.02;4.93;;;9.60;99.90;;;;;;4883387;29;20035;-90
2021/06/05 03:02:28;;;;;;;8.77;4.82;;;9.50;99.90;;;;;;4883587;29;20040;-91
2021/06/05 03:04:53;;;;;;;12.75;5.15;;;9.50;99.90;;;;;;4875252;29;20032;-91
2021/06/05 03:07:19;;;;;;;9.13;5.20;;;9.40;99.90;;;;;;4876432;29;20032;-89
2021/06/05 03:09:45;;;;;;;11.00;5.63;;;9.40;99.90;;;;;;4875347;29;20483;-89
2021/06/05 03:12:14;;;;;;;8.75;5.13;;;9.40;99.90;;;;;;4874152;29;20017;-88
2021/06/05 03:14:40;;;;;;;8.38;4.90;;;9.40;99.90;;;;;;4871444;29;20675;-90
2021/06/05 03:17:08;;;;;;;9.50;5.53;;;9.30;99.90;;;;;;4874946;29;20021;-90
2021/06/05 03:19:34;;;;;;;6.78;4.88;;;9.30;99.90;;;;;;4875570;29;20031;-90
2021/06/05 03:22:00;;;;;;;8.07;4.68;;;9.20;99.90;;;;;;4873613;29;20036;-89
2021/06/05 03:24:26;;;;;;;7.75;5.25;;;9.20;99.90;;;;;;4873028;29;20052;-90
2021/06/05 03:26:55;;;;;;;11.15;4.95;;;9.20;99.90;;;;;;4876823;29;20375;-89
2021/06/05 03:29:22;;;;;;;7.97;5.43;;;9.10;99.90;;;;;;4872111;29;20048;-90
2021/06/05 03:31:49;;;;;;;7.10;4.95;;;9.10;99.90;;;;;;4875407;29;20037;-89
2021/06/05 03:34:15;;;;;;;7.60;5.32;;;9.10;99.90;;;;;;4873554;29;20048;-89
2021/06/05 03:36:41;;;;;;;9.98;6.13;;;9.00;99.90;;;;;;4874211;29;20059;-89
2021/06/05 03:39:07;;;;;;;9.13;5.20;;;9.00;99.90;;;;;;4872301;29;20021;-89
2021/06/05 03:41:34;;;;;;;7.88;5.68;;;8.90;99.90;;;;;;4890724;29;20040;-89
2021/06/05 03:44:00;;;;;;;13.32;6.28;;;8.90;99.90;;;;;;4872650;29;20056;-89
2021/06/05 03:46:26;;;;;;;11.05;5.80;;;8.80;99.90;;;;;;4872066;29;20081;-88
2021/06/05 03:48:52;;;;;;;12.02;6.13;;;8.70;99.90;;;;;;4876882;29;20025;-89
2021/06/05 03:51:18;;;;;;;10.38;5.95;;;8.70;99.90;;;;;;4887086;29;20028;-90
2021/06/05 03:53:45;;;;;;;17.65;5.97;;;8.70;99.90;;;;;;4899735;29;20060;-90
2021/06/05 03:56:13;;;;;;;10.25;5.43;;;8.70;99.90;;;;;;4884396;29;20041;-90
2021/06/05 03:58:42;;;;;;;10.90;5.97;;;8.70;99.90;;;;;;4881528;29;20026;-90
2021/06/05 04:01:11;;;;;;;9.75;5.18;;;8.70;99.90;;;;;;4880849;29;20024;-89
2021/06/05 04:03:36;;;;;;;9.93;5.38;;;8.70;99.90;;;;;;4879925;29;20032;-89
2021/06/05 04:06:02;;;;;;;11.85;5.95;;;8.70;99.90;;;;;;4871068;29;20031;-90
2021/06/05 04:08:28;;;;;;;9.65;5.57;;;8.70;99.90;;;;;;4873942;29;20024;-89
2021/06/05 04:10:54;;;;;;;12.52;5.65;;;8.70;99.90;;;;;;4872974;29;20045;-89
2021/06/05 04:13:20;;;;;;;8.98;5.28;;;8.70;99.90;;;;;;4874522;29;20080;-90
2021/06/05 04:15:46;;;;;;;11.32;5.65;;;8.70;99.90;;;;;;4873501;29;20036;-89
2021/06/05 04:18:16;;;;;;;8.32;5.55;;;8.70;99.90;;;;;;4872658;29;20028;-89
2021/06/05 04:20:43;;;;;;;10.93;5.85;;;8.70;99.90;;;;;;4874363;29;20025;-91
2021/06/05 04:23:10;;;;;;;9.10;6.07;;;8.70;99.90;;;;;;4868906;29;20487;-91
2021/06/05 04:25:37;;;;;;;13.73;6.47;;;8.70;99.90;;;;;;4888182;29;20029;-91
2021/06/05 04:28:07;;;;;;;15.65;7.60;;;8.60;99.90;;;;;;4873537;29;20033;-91
2021/06/05 04:30:35;;;;;;;9.43;6.60;;;8.50;99.90;;;;;;4873080;29;20021;-91
2021/06/05 04:33:03;;;;;;;10.25;6.15;;;8.50;99.90;;;;;;4877049;29;20029;-90
2021/06/05 04:36:37;;;;;;;;;;;;;;;;;;;;;
2021/06/05 04:39:04;;;;;;;11.05;6.25;;;8.40;99.90;;;;;;4788727;30;20796;-90
2021/06/05 04:41:30;;;;;;;10.18;6.57;;;8.40;99.90;;;;;;4788666;29;20168;-91
2021/06/05 04:43:56;;;;;;;11.30;7.50;;;8.40;99.90;;;;;;4773217;30;20130;-90
2021/06/05 04:46:23;;;;;;;12.88;7.70;;;8.40;99.90;;;;;;4772853;30;20405;-90
2021/06/05 04:48:50;;;;;;;13.93;7.55;;;8.30;99.90;;;;;;4788310;30;20031;-89
2021/06/05 04:51:18;;;;;;;12.38;7.20;;;8.30;99.90;;;;;;4773372;29;20118;-91
2021/06/05 04:53:44;;;;;;;15.05;7.85;;;8.20;99.90;;;;;;4774388;30;20045;-89
2021/06/05 04:56:12;;;;;;;13.02;7.07;;;8.20;99.90;;;;;;4774036;30;20134;-90
2021/06/05 04:58:41;;;;;;;12.13;7.50;;;8.20;99.90;;;;;;4789102;30;20070;-90
2021/06/05 05:01:08;;;;;;;12.73;6.93;;;8.20;99.90;;;;;;4774383;30;20067;-90
2021/06/05 05:03:45;;;;;;;12.15;7.22;;;8.20;99.90;;;;;;4774022;30;20142;-90
2021/06/05 05:06:14;;;;;;;13.73;7.20;;;8.20;99.90;;;;;;4775464;30;20073;-91
2021/06/05 05:10:00;;;;;;;12.10;6.38;;;8.30;99.90;;;;;;4788948;29;20024;-91
2021/06/05 05:12:41;;;;;;;13.82;6.88;;;8.40;99.90;;;;;;4772921;30;20036;-90
2021/06/05 05:15:08;;;;;;;11.93;6.38;;;8.40;99.90;;;;;;4760668;30;20040;-90
2021/06/05 05:17:45;;;;;;;11.95;6.78;;;8.40;99.90;;;;;;4751705;30;20122;-90
2021/06/05 05:20:14;;;;;;;11.52;7.13;;;8.50;99.90;;;;;;4757719;30;20134;-90
2021/06/05 05:22:40;;;;;;;14.13;7.07;;;8.50;99.90;;;;;;4754868;30;20036;-89
2021/06/05 05:25:07;;;;;;;14.93;6.97;;;8.50;99.90;;;;;;4746515;30;20029;-91
2021/06/05 05:27:33;;;;;;;11.32;6.13;;;8.50;99.90;;;;;;4753107;30;20454;-91
2021/06/05 05:29:59;;;;;;;11.13;6.43;;;8.50;99.90;;;;;;4765519;30;20086;-91
2021/06/05 05:32:24;;;;;;;10.05;6.57;;;8.50;99.90;;;;;;4756656;30;20035;-91
2021/06/05 05:34:50;;;;;;;16.10;7.40;;;8.60;99.90;;;;;;4769307;30;20507;-91
2021/06/05 05:37:16;;;;;;;12.88;5.95;;;8.60;99.90;;;;;;4756463;30;20031;-90
2021/06/05 05:39:42;;;;;;;12.88;8.43;;;8.60;99.90;;;;;;4745674;30;20040;-90
2021/06/05 05:42:08;;;;;;;16.05;8.02;;;8.70;99.90;;;;;;4753486;30;20040;-90
2021/06/05 05:44:34;;;;;;;13.93;7.25;;;8.70;99.90;;;;;;4755772;30;20032;-91
2021/06/05 05:47:00;;;;;;;12.25;7.45;;;8.80;99.90;;;;;;4818574;29;20567;-91
2021/06/05 05:49:27;;;;;;;13.30;7.35;;;8.80;99.90;;;;;;4875706;29;20115;-90
2021/06/05 05:51:53;;;;;;;11.15;7.53;;;8.80;99.90;;;;;;4876161;29;20041;-90
2021/06/05 05:54:19;;;;;;;18.73;7.85;;;8.90;99.90;;;;;;4876412;29;20041;-89
2021/06/05 05:56:45;;;;;;;16.05;7.90;;;8.90;99.90;;;;;;4872929;29;20068;-90
2021/06/05 05:59:15;;;;;;;11.23;7.22;;;9.00;99.90;;;;;;4873476;29;20395;-90
2021/06/05 06:01:41;;;;;;;20.73;8.13;;;9.10;99.90;;;;;;4872097;29;20037;-91
2021/06/05 06:04:09;;;;;;;16.25;7.78;;;9.20;99.90;;;;;;4870026;29;20390;-91
2021/06/05 06:06:36;;;;;;;17.52;8.05;;;9.30;99.90;;;;;;4887044;29;20422;-93
2021/06/05 06:09:04;;;;;;;13.25;8.13;;;9.40;99.90;;;;;;4878056;29;20029;-91
2021/06/05 06:11:30;;;;;;;14.98;8.07;;;9.50;99.90;;;;;;4891848;29;20060;-90
2021/06/05 06:13:58;;;;;;;14.27;7.60;;;9.60;99.90;;;;;;4878949;29;20479;-89
2021/06/05 06:16:35;;;;;;;12.57;8.05;;;9.70;99.90;;;;;;4879155;29;20056;-90
2021/06/05 06:19:05;;;;;;;12.90;7.20;;;9.80;99.90;;;;;;4880535;29;20025;-90
2021/06/05 06:21:31;;;;;;;12.63;7.80;;;9.90;99.90;;;;;;4881689;29;20042;-91
2021/06/05 06:23:57;;;;;;;13.52;7.45;;;10.00;99.90;;;;;;4879434;29;20099;-92
2021/06/05 06:26:29;;;;;;;15.18;8.43;;;10.10;99.90;;;;;;4880625;29;20119;-91
2021/06/05 06:29:06;;;;;;;15.70;8.07;;;10.20;99.90;;;;;;4874022;29;20028;-90
2021/06/05 06:31:32;;;;;;;14.55;8.07;;;10.30;99.90;;;;;;4879468;29;20028;-91
2021/06/05 06:33:58;;;;;;;15.38;7.95;;;10.40;99.90;;;;;;4879768;29;20028;-91
2021/06/05 06:36:26;;;;;;;13.70;7.43;;;10.50;99.90;;;;;;4875883;29;20490;-91
2021/06/05 06:38:57;;;;;;;17.08;8.63;;;10.50;99.90;;;;;;4869146;29;20040;-92
2021/06/05 06:41:28;;;;;;;15.18;8.45;;;10.70;99.90;;;;;;4869132;29;20085;-91
2021/06/05 06:43:59;;;;;;;18.17;8.57;;;10.70;99.90;;;;;;4897373;29;20034;-91
2021/06/05 06:46:35;;;;;;;13.80;7.88;;;10.80;99.90;;;;;;4877608;29;20028;-91
2021/06/05 06:49:04;;;;;;;20.58;8.18;;;10.90;99.90;;;;;;4891766;29;20029;-91
2021/06/05 06:51:30;;;;;;;15.43;7.90;;;11.10;99.90;;;;;;4901507;29;20022;-91
2021/06/05 06:53:58;;;;;;;16.60;8.13;;;11.20;99.90;;;;;;4887381;29;20416;-92
2021/06/05 06:56:27;;;;;;;18.67;8.98;;;11.30;99.90;;;;;;4886444;29;20025;-93
2021/06/05 06:58:55;;;;;;;13.55;8.00;;;11.40;99.90;;;;;;4888401;29;20060;-93
2021/06/05 07:01:29;;;;;;;19.92;8.70;;;11.60;99.90;;;;;;4880971;29;20029;-92
2021/06/05 07:03:55;;;;;;;13.77;7.78;;;11.70;99.90;;;;;;4879175;29;20016;-90
2021/06/05 07:06:25;;;;;;;13.75;7.70;;;11.80;99.90;;;;;;4872878;29;20057;-91
2021/06/05 07:08:55;;;;;;;18.42;7.57;;;11.90;99.90;;;;;;4871611;29;20028;-92
2021/06/05 07:11:41;;;;;;;12.65;7.03;;;12.10;99.90;;;;;;4900293;29;20047;-92
2021/06/05 07:14:10;;;;;;;16.63;7.13;;;12.20;99.90;;;;;;4900606;29;20031;-92
2021/06/05 07:16:45;;;;;;;11.32;6.43;;;12.30;99.90;;;;;;4884998;29;20028;-93
2021/06/05 07:19:11;;;;;;;17.00;7.70;;;12.40;99.90;;;;;;4886099;29;20028;-93
2021/06/05 07:21:44;;;;;;;10.20;7.18;;;12.60;99.90;;;;;;4902614;29;20064;-94
2021/06/05 07:24:12;;;;;;;8.25;5.00;;;12.60;99.90;;;;;;4862415;29;20034;-94
2021/06/05 07:26:46;;;;;;;15.20;7.65;;;12.90;99.90;;;;;;4890311;29;20021;-95
2021/06/05 07:29:15;;;;;;;18.35;7.80;;;12.90;99.90;;;;;;4883206;29;20033;-95
2021/06/05 07:31:50;;;;;;;19.05;8.27;;;13.10;99.90;;;;;;4882584;29;20029;-95
2021/06/05 07:34:22;;;;;;;9.73;6.32;;;13.30;99.90;;;;;;4895640;29;20060;-94
2021/06/05 07:36:51;;;;;;;15.48;7.00;;;13.40;99.90;;;;;;4910825;29;20032;-95
2021/06/05 07:39:20;;;;;;;15.23;6.57;;;13.60;99.90;;;;;;4884343;29;20058;-94
2021/06/05 07:41:54;;;;;;;11.85;7.47;;;13.70;99.90;;;;;;4870655;29;20040;-96
2021/06/05 07:44:23;;;;;;;13.80;7.93;;;13.80;99.90;;;;;;4877025;29;20048;-96
2021/06/05 07:46:53;;;;;;;12.38;7.95;;;14.00;99.90;;;;;;4894124;29;20122;-95
2021/06/05 07:49:22;;;;;;;13.47;7.90;;;14.10;99.90;;;;;;4897681;29;20025;-96
2021/06/05 07:51:48;;;;;;;14.68;7.03;;;14.30;99.90;;;;;;4897346;29;20025;-96
2021/06/05 07:54:28;;;;;;;14.00;7.68;;;14.40;99.90;;;;;;4868239;29;20021;-95
2021/06/05 07:56:55;;;;;;;11.52;6.20;;;14.60;99.90;;;;;;4869937;29;20036;-95
2021/06/05 07:59:37;;;;;;;13.38;6.95;;;14.70;99.90;;;;;;4883822;29;20015;-95
2021/06/05 08:02:03;;;;;;;13.45;5.95;;;14.90;99.90;;;;;;4879399;29;20144;-94
2021/06/05 08:04:36;;;;;;;13.88;7.32;;;15.00;99.90;;;;;;4883151;29;20033;-95
2021/06/05 08:07:06;;;;;;;13.38;6.97;;;15.20;99.90;;;;;;4874273;29;20013;-96
2021/06/05 08:09:39;;;;;;;15.57;7.30;;;15.40;99.90;;;;;;4906372;29;20021;-96
2021/06/05 08:12:09;;;;;;;10.52;6.10;;;15.50;99.90;;;;;;4906351;29;20028;-94
2021/06/05 08:14:48;;;;;;;12.52;6.47;;;15.70;99.90;;;;;;4905059;29;20029;-95
2021/06/05 08:17:16;;;;;;;11.35;5.90;;;15.90;99.90;;;;;;4888746;29;20069;-96
2021/06/05 08:19:44;;;;;;;10.55;6.38;;;16.10;99.90;;;;;;4887471;29;20037;-96
2021/06/05 08:22:14;;;;;;;10.73;6.35;;;16.20;99.60;;;;;;4885024;29;20140;-96
2021/06/05 08:25:23;;;;;;;15.87;6.10;;;16.40;99.00;;;;;;4890349;29;20032;-95
2021/06/05 09:47:06;;;;;;;2.30;1.20;;;20.90;66.00;;;;;;5139947;23;20060;-95
2021/06/05 09:49:46;;;;;;;3.80;2.00;;;21.10;65.20;;;;;;4893944;29;20482;-94
2021/06/05 09:52:31;;;;;;;6.10;3.35;;;21.30;64.10;;;;;;4908770;29;20099;-94
2021/06/05 09:55:08;;;;;;;7.15;2.83;;;21.40;63.50;;;;;;4925753;29;20466;-93
2021/06/05 09:57:45;;;;;;;6.30;2.47;;;21.60;64.00;;;;;;4894763;29;20028;-94
2021/06/05 10:00:23;;;;;;;3.25;2.25;;;21.80;62.20;;;;;;4909344;29;20115;-94
2021/06/05 10:02:52;;;;;;;4.50;1.55;;;22.00;61.30;;;;;;4913319;29;20048;-93
2021/06/05 10:05:23;;;;;;;6.10;1.85;;;22.20;61.10;;;;;;4926142;29;20052;-93
2021/06/05 10:07:49;;;;;;;8.35;2.65;;;22.40;60.60;;;;;;4925780;29;20028;-94
2021/06/05 10:10:28;;;;;;;3.95;2.65;;;22.50;59.60;;;;;;4925839;29;20032;-93
2021/06/05 10:13:01;;;;;;;5.95;2.70;;;22.60;59.10;;;;;;4924353;29;20052;-94
2021/06/05 10:15:51;;;;;;;8.43;3.47;;;22.60;58.90;;;;;;4917222;29;20488;-93
2021/06/05 10:18:22;;;;;;;6.47;3.75;;;22.80;59.30;;;;;;4941673;29;20023;-94
2021/06/05 10:20:57;;;;;;;;;;;22.80;59.20;;;;;;4941868;29;20042;-93
2021/06/05 10:23:31;;;;;;;7.95;3.08;;;22.80;59.50;;;;;;4943207;29;20017;-95
2021/06/05 10:26:07;;;;;;;4.65;2.45;;;22.70;59.50;;;;;;4925937;29;20043;-94
2021/06/05 10:28:39;;;;;;;6.28;2.60;;;22.50;59.00;;;;;;4897923;29;20088;-94
2021/06/05 10:31:13;;;;;;;4.00;2.83;;;22.40;59.00;;;;;;4899617;29;20029;-93
2021/06/05 10:33:54;;;;;;;4.05;2.50;;;22.20;58.40;;;;;;4887299;29;20032;-94
2021/06/05 10:36:28;;;;;;;4.63;2.30;;;22.10;58.20;;;;;;4892480;29;20016;-93
2021/06/05 10:39:00;;;;;;;24.08;11.55;;;22.20;58.00;;;;;;4877301;29;20024;-94
2021/06/05 10:41:30;;;;;;;24.65;13.32;;;22.40;58.10;;;;;;4890470;29;20072;-94
2021/06/05 10:43:56;;;;;;;7.22;3.70;;;22.70;58.20;;;;;;4882223;29;20029;-94
2021/06/05 10:46:54;;;;;;;6.30;2.60;;;23.10;58.10;;;;;;4873677;29;20072;-94
2021/06/05 10:49:20;;;;;;;25.20;10.35;;;23.20;58.00;;;;;;4891583;29;20241;-94
2021/06/05 10:51:50;;;;;;;17.95;7.10;;;23.10;57.90;;;;;;4890895;29;20076;-95
2021/06/05 10:54:25;;;;;;;24.77;12.48;;;22.90;57.70;;;;;;4892663;29;20103;-93
2021/06/05 10:57:31;;;;;;;48.55;20.50;;;22.80;58.00;;;;;;4891063;29;20103;-95
2021/06/05 11:00:09;;;;;;;32.22;12.38;;;22.80;58.20;;;;;;4897570;29;20092;-95
2021/06/05 11:02:47;;;;;;;27.60;14.48;;;23.00;58.00;;;;;;4892845;29;20040;-94
2021/06/05 11:05:16;;;;;;;43.78;15.60;;;23.30;58.70;;;;;;4867732;29;20075;-94
2021/06/05 11:07:52;;;;;;;6.50;3.10;;;23.50;58.00;;;;;;4875419;29;20032;-95
2021/06/05 11:10:46;;;;;;;5.88;2.80;;;23.70;57.70;;;;;;4890079;29;20025;-94
2021/06/05 11:13:38;;;;;;;22.58;8.50;;;24.00;56.70;;;;;;4881308;29;20114;-94
2021/06/05 11:16:05;;;;;;;7.43;3.08;;;23.90;56.00;;;;;;4874752;29;20036;-93
2021/06/05 11:18:36;;;;;;;9.40;3.95;;;24.10;56.30;;;;;;4875893;29;20021;-93
2021/06/05 11:21:27;;;;;;;5.05;2.80;;;24.20;56.60;;;;;;4872593;29;20029;-96
2021/06/05 11:23:58;;;;;;;7.07;2.03;;;24.40;56.00;;;;;;4892468;29;20089;-94
2021/06/05 11:26:44;;;;;;;4.40;3.17;;;24.50;55.60;;;;;;4874555;29;20035;-95
2021/06/05 11:29:19;;;;;;;4.07;2.58;;;24.40;54.90;;;;;;4877616;29;20029;-94
2021/06/05 11:31:53;;;;;;;5.15;3.10;;;24.40;55.40;;;;;;4888290;29;20025;-95
2021/06/05 11:34:42;;;;;;;4.43;3.05;;;24.50;55.40;;;;;;4899232;29;20052;-95
2021/06/05 11:37:16;;;;;;;4.65;3.42;;;24.50;55.10;;;;;;4882048;29;20040;-93
2021/06/05 11:39:46;;;;;;;5.55;3.35;;;24.70;55.00;;;;;;4886362;29;20117;-95
2021/06/05 11:42:40;;;;;;;6.13;3.20;;;24.70;54.80;;;;;;4880560;29;20109;-94
2021/06/05 11:45:15;;;;;;;5.65;3.25;;;24.70;55.00;;;;;;4891981;29;20065;-96
2021/06/05 11:47:43;;;;;;;7.35;3.10;;;24.70;55.30;;;;;;4902646;29;20089;-94
2021/06/05 11:50:19;;;;;;;4.60;3.47;;;24.70;55.40;;;;;;4900029;29;20025;-95
2021/06/05 11:53:14;;;;;;;5.25;2.95;;;24.70;55.30;;;;;;4884474;29;20035;-94
2021/06/05 11:55:46;;;;;;;7.95;3.17;;;25.00;54.90;;;;;;4881301;29;20021;-96
2021/06/05 11:58:42;;;;;;;6.25;3.63;;;25.20;54.50;;;;;;4903247;29;20064;-94
2021/06/05 12:01:18;;;;;;;7.03;3.83;;;25.60;54.00;;;;;;4901990;29;20514;-95
2021/06/05 12:04:01;;;;;;;7.80;2.88;;;25.50;53.40;;;;;;4901425;29;20041;-92
2021/06/05 12:06:26;;;;;;;5.93;2.85;;;25.20;53.40;;;;;;4894916;29;20036;-95
2021/06/05 12:09:40;;;;;;;7.28;3.00;;;25.10;53.40;;;;;;4894213;29;20036;-93
2021/06/05 12:12:09;;;;;;;4.72;2.30;;;25.20;53.60;;;;;;4794508;29;20542;-95
2021/06/05 12:14:59;;;;;;;8.35;3.00;;;25.40;53.80;;;;;;4810695;29;20027;-95
2021/06/05 12:17:47;;;;;;;6.07;3.83;;;25.50;53.20;;;;;;4815218;29;20046;-96
2021/06/05 12:20:25;;;;;;;4.25;2.60;;;25.80;53.30;;;;;;4815965;29;20073;-95
2021/06/05 12:23:12;;;;;;;4.28;2.50;;;25.90;53.10;;;;;;4824431;29;20063;-95
2021/06/05 12:25:44;;;;;;;6.10;3.25;;;25.90;53.00;;;;;;4816818;29;20022;-93
2021/06/05 12:28:33;;;;;;;4.47;2.47;;;25.90;52.20;;;;;;4817622;29;20154;-95
2021/06/05 12:31:32;;;;;;;5.45;2.83;;;25.70;51.70;;;;;;4818621;29;20045;-95
2021/06/05 12:34:34;;;;;;;5.93;3.50;;;25.70;52.20;;;;;;4813607;29;20026;-96
2021/06/05 12:37:16;;;;;;;5.55;2.28;;;25.80;51.30;;;;;;4794160;29;20038;-96
2021/06/05 12:40:20;;;;;;;6.05;2.30;;;25.80;51.70;;;;;;4827027;29;20066;-95
2021/06/05 12:42:47;;;;;;;4.53;2.72;;;25.90;51.20;;;;;;4843906;29;20117;-96
2021/06/05 12:45:25;;;;;;;8.98;4.30;;;25.70;51.20;;;;;;4867559;29;20029;-95
2021/06/05 12:47:55;;;;;;;4.40;2.38;;;25.40;51.20;;;;;;4882687;29;20048;-95
2021/06/05 12:50:25;;;;;;;7.13;3.33;;;25.30;51.70;;;;;;4884015;29;20025;-95
2021/06/05 12:52:52;;;;;;;4.27;2.50;;;25.50;51.90;;;;;;4880811;29;20039;-95
2021/06/05 12:55:24;;;;;;;3.30;2.35;;;25.60;51.50;;;;;;4905208;29;20039;-96
2021/06/05 12:57:52;;;;;;;5.45;2.55;;;25.60;51.30;;;;;;4903865;29;20096;-95
2021/06/05 13:00:30;;;;;;;3.05;1.95;;;25.80;51.20;;;;;;4897368;29;20124;-94
2021/06/05 13:03:15;;;;;;;5.32;2.00;;;25.90;50.70;;;;;;4901169;29;20529;-96
2021/06/05 13:06:09;;;;;;;4.78;1.90;;;26.20;50.30;;;;;;4894017;29;20029;-94
2021/06/05 13:08:41;;;;;;;8.98;2.80;;;26.20;49.40;;;;;;4897240;29;20498;-95
2021/06/05 13:11:12;;;;;;;4.75;1.73;;;26.30;49.60;;;;;;4882729;29;20044;-95
2021/06/05 13:13:59;;;;;;;6.90;1.75;;;26.40;50.10;;;;;;4892423;29;20027;-94
2021/06/05 13:16:29;;;;;;;70.93;11.48;;;26.30;48.90;;;;;;4900217;29;20029;-96
2021/06/05 13:19:08;;;;;;;4.05;1.73;;;26.10;49.20;;;;;;4877648;29;20495;-95
2021/06/05 13:21:34;;;;;;;4.75;1.88;;;25.80;49.70;;;;;;4899212;29;20040;-95
2021/06/05 13:24:18;;;;;;;4.65;1.88;;;25.30;49.40;;;;;;4874643;29;20036;-93
2021/06/05 13:26:48;;;;;;;7.40;2.25;;;25.10;50.50;;;;;;4865813;29;20033;-92
2021/06/05 13:29:41;;;;;;;7.63;2.25;;;25.20;51.00;;;;;;4867937;29;20064;-92
2021/06/05 13:32:27;;;;;;;3.03;1.60;;;25.50;51.30;;;;;;4882598;29;20033;-93
2021/06/05 13:35:04;;;;;;;25.63;14.98;;;25.50;50.80;;;;;;4873982;29;20049;-92
2021/06/05 13:38:03;;;;;;;3.00;1.70;;;25.60;50.60;;;;;;4894676;29;20033;-91
2021/06/05 13:40:33;;;;;;;5.85;1.83;;;25.80;50.00;;;;;;4874730;29;20044;-91
2021/06/05 13:42:59;;;;;;;5.03;1.90;;;25.80;50.00;;;;;;4896369;29;20557;-94
2021/06/05 13:45:32;;;;;;;4.57;1.73;;;25.70;50.10;;;;;;4894479;29;20066;-90
2021/06/05 13:48:02;;;;;;;3.17;1.52;;;25.90;50.30;;;;;;4891407;29;20025;-92
2021/06/05 13:50:30;;;;;;;7.20;1.45;;;26.10;49.90;;;;;;4864324;29;20395;-89
2021/06/05 13:53:17;;;;;;;1.98;1.45;;;26.30;49.60;;;;;;4865570;29;20036;-90
2021/06/05 13:55:51;;;;;;;3.78;2.10;;;26.30;48.90;;;;;;4865934;29;20100;-91
2021/06/05 13:58:17;;;;;;;3.38;1.20;;;26.10;48.80;;;;;;4881890;29;20036;-91
2021/06/05 14:00:45;;;;;;;1.73;0.98;;;25.90;49.20;;;;;;4883360;29;20040;-90
2021/06/05 14:03:11;;;;;;;2.13;1.00;;;25.80;49.50;;;;;;4881628;29;20040;-90
2021/06/05 14:05:37;;;;;;;4.53;1.30;;;25.80;50.00;;;;;;4873692;29;20039;-91
2021/06/05 14:08:04;;;;;;;3.53;1.15;;;25.90;49.80;;;;;;4879268;29;20029;-91
2021/06/05 14:10:30;;;;;;;2.40;1.30;;;26.30;49.70;;;;;;4866522;29;20029;-91
2021/06/05 14:12:57;;;;;;;3.25;1.67;;;26.50;49.30;;;;;;4869612;29;20376;-91
2021/06/05 14:15:25;;;;;;;4.82;1.40;;;26.50;49.30;;;;;;4867546;29;20033;-90
2021/06/05 14:17:51;;;;;;;3.47;1.10;;;26.30;49.10;;;;;;4870826;29;20043;-91
2021/06/05 14:20:25;;;;;;;3.55;1.40;;;26.20;49.20;;;;;;4870111;29;20024;-91
2021/06/05 14:22:52;;;;;;;1.58;1.20;;;26.00;48.90;;;;;;4888400;29;20044;-91
2021/06/05 14:25:19;;;;;;;4.05;1.42;;;25.60;49.50;;;;;;4889491;29;20028;-90
2021/06/05 14:27:45;;;;;;;2.35;1.35;;;25.30;50.00;;;;;;4897122;29;20028;-91
2021/06/05 14:30:32;;;;;;;3.53;1.15;;;25.30;50.50;;;;;;4882349;29;20119;-91
2021/06/05 14:32:58;;;;;;;2.30;1.30;;;25.30;50.60;;;;;;4882174;29;20062;-90